Time;durP1;ratioP1;P1;durP2;ratioP2;P2;SDS_P1;SDS_P2;PMS_P1;PMS_P2;Temp;Humidity;BMP_temperature;BMP_pressure;BME280_temperature;BME280_humidity;BME280_pressure;Samples;Min_cycle;Max_cycle;Signal;HPM_P1;HPM_P2
2021/03/12 00:00:51;;;;;;;0.60;0.30;;;5.80;99.90;;;;;;4994847;28;20441;-94
2021/03/12 00:03:24;;;;;;;0.50;0.40;;;7.00;99.90;;;;;;5004773;28;20518;-94
2021/03/12 00:05:53;;;;;;;0.67;0.40;;;5.80;99.90;;;;;;5010907;28;20557;-93
2021/03/12 00:08:22;;;;;;;0.50;0.30;;;5.80;99.90;;;;;;4974116;28;20560;-92
2021/03/12 00:10:50;;;;;;;1.40;0.40;;;5.90;99.90;;;;;;4995141;28;20512;-93
2021/03/12 00:13:18;;;;;;;2.47;0.73;;;5.80;99.90;;;;;;4998124;28;20449;-92
2021/03/12 00:15:45;;;;;;;0.63;0.30;;;;;;;;;;4998498;28;20988;-91
2021/03/12 00:18:13;;;;;;;0.40;0.30;;;6.20;99.90;;;;;;5000180;28;20457;-93
2021/03/12 00:20:41;;;;;;;3.07;0.60;;;6.10;99.90;;;;;;4999707;28;20453;-93
2021/03/12 00:23:08;;;;;;;4.10;0.63;;;;;;;;;;4994895;28;20449;-92
2021/03/12 00:25:40;;;;;;;2.63;1.00;;;6.10;99.90;;;;;;5000107;28;20452;-92
2021/03/12 00:28:10;;;;;;;0.60;0.30;;;6.10;99.90;;;;;;5002126;28;20478;-93
2021/03/12 00:30:40;;;;;;;0.80;0.30;;;6.10;99.90;;;;;;4999997;28;20456;-90
2021/03/12 00:33:09;;;;;;;1.23;0.37;;;6.10;99.90;;;;;;5002637;28;20457;-91
2021/03/12 00:35:38;;;;;;;0.93;0.40;;;6.10;99.90;;;;;;5001158;28;20913;-91
2021/03/12 00:38:05;;;;;;;0.50;0.30;;;6.10;99.90;;;;;;5002646;28;20449;-92
2021/03/12 00:40:35;;;;;;;0.97;0.50;;;6.10;99.90;;;;;;4998051;28;20457;-89
2021/03/12 00:43:02;;;;;;;2.53;0.70;;;;;;;;;;5002114;28;20451;-91
2021/03/12 00:45:33;;;;;;;0.60;0.50;;;6.10;99.90;;;;;;5002191;28;20937;-90
2021/03/12 00:48:01;;;;;;;3.80;0.67;;;;;;;;;;5001197;28;20468;-91
2021/03/12 00:50:31;;;;;;;2.10;0.90;;;6.30;99.90;;;;;;5002627;28;20967;-90
2021/03/12 00:52:58;;;;;;;0.70;0.50;;;6.30;99.90;;;;;;5003197;28;20456;-91
2021/03/12 00:55:25;;;;;;;1.80;0.50;;;6.30;99.90;;;;;;4997769;28;20464;-92
2021/03/12 00:57:53;;;;;;;4.50;1.10;;;6.40;99.90;;;;;;4997258;28;20481;-93
2021/03/12 01:00:22;;;;;;;1.50;0.40;;;6.30;99.90;;;;;;5003097;28;20457;-92
2021/03/12 01:02:51;;;;;;;2.20;0.93;;;6.30;99.90;;;;;;5002644;28;20461;-91
2021/03/12 01:05:20;;;;;;;3.17;0.50;;;6.30;99.90;;;;;;4997954;28;20446;-92
2021/03/12 01:07:46;;;;;;;3.10;0.80;;;6.40;99.90;;;;;;5002647;28;20880;-92
2021/03/12 01:10:16;;;;;;;3.17;1.00;;;6.40;99.90;;;;;;4999344;28;20794;-91
2021/03/12 01:12:43;;;;;;;1.80;0.73;;;6.50;99.90;;;;;;4997642;28;20485;-91
2021/03/12 01:15:14;;;;;;;2.30;0.60;;;7.80;99.90;;;;;;5002402;28;20477;-91
2021/03/12 01:17:41;;;;;;;1.00;0.40;;;;;;;;;;5002517;28;20433;-91
2021/03/12 01:20:10;;;;;;;0.60;0.40;;;6.00;99.90;;;;;;4996282;28;20464;-91
2021/03/12 01:22:38;;;;;;;2.33;0.50;;;;;;;;;;5001938;28;20552;-90
2021/03/12 01:25:07;;;;;;;1.37;0.50;;;6.40;99.90;;;;;;5010359;28;20449;-91
2021/03/12 01:27:42;;;;;;;1.20;0.60;;;6.40;99.90;;;;;;5014853;28;20458;-93
2021/03/12 01:30:16;;;;;;;1.77;0.37;;;6.40;99.90;;;;;;5002449;28;20829;-92
2021/03/12 01:32:42;;;;;;;1.60;0.70;;;6.40;99.90;;;;;;5000225;28;20485;-88
2021/03/12 01:35:11;;;;;;;3.07;0.73;;;6.50;99.90;;;;;;4995788;28;20456;-91
2021/03/12 01:37:37;;;;;;;0.63;0.37;;;6.50;99.90;;;;;;5003148;28;20448;-91
2021/03/12 01:40:07;;;;;;;3.70;0.60;;;6.50;99.90;;;;;;5019490;28;20501;-93
2021/03/12 01:42:34;;;;;;;0.53;0.33;;;6.50;99.90;;;;;;4996949;28;20453;-92
2021/03/12 01:45:05;;;;;;;2.30;0.50;;;6.20;99.90;;;;;;4996415;28;20460;-91
2021/03/12 01:47:32;;;;;;;2.97;0.67;;;7.70;99.90;;;;;;5001754;28;20440;-91
2021/03/12 01:49:58;;;;;;;3.90;0.50;;;;;;;;;;4997199;28;20845;-91
2021/03/12 01:52:25;;;;;;;0.97;0.40;;;;;;;;;;5000424;28;20485;-89
2021/03/12 01:54:55;;;;;;;0.60;0.30;;;;;;;;;;4997609;28;20933;-90
2021/03/12 01:57:22;;;;;;;0.40;0.30;;;;;;;;;;5000956;28;20499;-93
2021/03/12 01:59:50;;;;;;;0.80;0.47;;;;;;;;;;4941981;29;20569;-90
2021/03/12 02:02:20;;;;;;;2.93;0.73;;;5.00;99.90;;;;;;4938482;29;20460;-91
2021/03/12 02:04:46;;;;;;;1.70;0.40;;;5.10;99.90;;;;;;4940062;29;20476;-90
2021/03/12 02:07:14;;;;;;;3.33;0.50;;;5.20;99.90;;;;;;4941236;29;20519;-92
2021/03/12 02:09:42;;;;;;;2.43;0.93;;;5.20;99.90;;;;;;4941283;29;20641;-92
2021/03/12 02:12:14;;;;;;;0.80;0.47;;;5.10;99.90;;;;;;4941591;29;20489;-91
2021/03/12 02:14:48;;;;;;;4.27;0.50;;;5.00;99.90;;;;;;4941540;29;20483;-91
2021/03/12 02:17:23;;;;;;;0.80;0.50;;;5.10;99.90;;;;;;4890936;29;20467;-90
2021/03/12 02:20:08;;;;;;;3.80;1.00;;;5.10;99.90;;;;;;4935818;29;20456;-91
2021/03/12 02:22:39;;;;;;;2.20;0.87;;;5.10;99.90;;;;;;4937419;29;20459;-91
2021/03/12 02:25:08;;;;;;;0.40;0.30;;;5.20;99.90;;;;;;4988232;28;20580;-91
2021/03/12 02:27:43;;;;;;;2.17;0.60;;;5.30;99.90;;;;;;4997577;28;20438;-91
2021/03/12 02:30:12;;;;;;;1.67;0.50;;;5.20;99.90;;;;;;4996980;28;20432;-91
2021/03/12 02:32:44;;;;;;;2.67;0.70;;;5.30;99.90;;;;;;5001066;28;20478;-92
2021/03/12 02:35:15;;;;;;;2.77;0.70;;;5.30;99.90;;;;;;5000516;28;20957;-92
2021/03/12 02:37:44;;;;;;;1.67;0.60;;;5.30;99.90;;;;;;4995092;28;20430;-92
2021/03/12 02:40:11;;;;;;;2.53;0.83;;;6.60;99.90;;;;;;5000883;28;20449;-92
2021/03/12 02:42:42;;;;;;;2.90;1.00;;;4.90;99.90;;;;;;5001023;28;20441;-92
2021/03/12 02:45:11;;;;;;;1.43;0.63;;;5.10;99.90;;;;;;4995514;28;20919;-91
2021/03/12 02:47:40;;;;;;;3.23;0.60;;;5.20;99.90;;;;;;5000865;28;20457;-91
2021/03/12 02:50:11;;;;;;;3.30;0.40;;;5.30;99.90;;;;;;4995116;28;20457;-93
2021/03/12 02:52:38;;;;;;;2.63;0.50;;;;;;;;;;4995987;28;20513;-92
2021/03/12 02:55:07;;;;;;;7.20;0.70;;;5.20;99.90;;;;;;5007657;28;20512;-91
2021/03/12 02:57:33;;;;;;;2.50;0.67;;;5.20;99.90;;;;;;5013996;28;20544;-92
2021/03/12 03:00:01;;;;;;;1.90;0.70;;;5.20;99.90;;;;;;5000496;28;20430;-92
2021/03/12 03:02:29;;;;;;;0.90;0.40;;;5.20;99.90;;;;;;4994657;28;20481;-91
2021/03/12 03:04:57;;;;;;;1.17;0.80;;;5.10;99.90;;;;;;4999541;28;20796;-92
2021/03/12 03:07:26;;;;;;;1.03;0.53;;;6.50;99.90;;;;;;5000193;28;20461;-92
2021/03/12 03:09:55;;;;;;;2.40;0.50;;;5.20;99.90;;;;;;5000494;28;20437;-91
2021/03/12 03:12:25;;;;;;;1.83;0.30;;;5.30;99.90;;;;;;5000543;28;20483;-92
2021/03/12 03:15:01;;;;;;;0.50;0.30;;;5.40;99.90;;;;;;4995311;28;20482;-90
2021/03/12 03:17:36;;;;;;;4.33;1.00;;;5.50;99.90;;;;;;5000308;28;20460;-91
2021/03/12 03:20:09;;;;;;;0.30;0.20;;;5.40;99.90;;;;;;4998017;28;20448;-93
2021/03/12 03:22:38;;;;;;;4.23;1.23;;;5.40;99.90;;;;;;4999866;28;20455;-90
2021/03/12 03:25:06;;;;;;;5.50;1.00;;;5.50;99.90;;;;;;5000063;28;20429;-90
2021/03/12 03:27:34;;;;;;;3.83;0.60;;;5.40;99.90;;;;;;4999947;28;20445;-92
2021/03/12 03:30:04;;;;;;;6.63;0.60;;;5.30;99.90;;;;;;4995356;28;20452;-91
2021/03/12 03:32:33;;;;;;;2.93;0.73;;;5.40;99.90;;;;;;4997834;28;20493;-92
2021/03/12 03:35:01;;;;;;;1.97;1.07;;;5.40;99.90;;;;;;4997898;28;20461;-93
2021/03/12 03:37:29;;;;;;;4.10;0.63;;;5.40;99.90;;;;;;4966142;28;20456;-92
2021/03/12 03:40:01;;;;;;;3.23;0.40;;;5.30;99.90;;;;;;4998179;28;20460;-91
2021/03/12 03:42:32;;;;;;;0.60;0.30;;;5.40;99.90;;;;;;4998247;28;20461;-93
2021/03/12 03:45:01;;;;;;;4.80;0.73;;;5.40;99.90;;;;;;4992350;28;20796;-91
2021/03/12 03:47:29;;;;;;;0.40;0.30;;;5.40;99.90;;;;;;4997981;28;20549;-91
2021/03/12 03:49:57;;;;;;;0.63;0.40;;;5.40;99.90;;;;;;4986311;28;20594;-93
2021/03/12 03:52:24;;;;;;;3.70;0.93;;;5.30;99.90;;;;;;4992915;28;20492;-94
2021/03/12 03:54:52;;;;;;;1.40;0.60;;;7.40;99.90;;;;;;4994905;28;20453;-91
2021/03/12 03:57:21;;;;;;;5.20;0.60;;;5.20;99.90;;;;;;5010776;28;20485;-92
2021/03/12 03:59:48;;;;;;;1.90;0.70;;;5.20;99.90;;;;;;4998174;28;20450;-91
2021/03/12 04:02:16;;;;;;;0.70;0.40;;;5.20;99.90;;;;;;4994960;28;20433;-92
2021/03/12 04:04:45;;;;;;;0.73;0.50;;;5.20;99.90;;;;;;4998640;28;20449;-92
2021/03/12 04:07:14;;;;;;;2.33;0.63;;;5.20;99.90;;;;;;4995934;28;20812;-92
2021/03/12 04:09:42;;;;;;;1.73;0.60;;;5.10;99.90;;;;;;4998241;28;20433;-91
2021/03/12 04:12:09;;;;;;;1.47;0.60;;;5.10;99.90;;;;;;4998484;28;20504;-90
2021/03/12 04:14:37;;;;;;;3.57;0.80;;;5.20;99.90;;;;;;4996651;28;20508;-92
2021/03/12 04:17:03;;;;;;;2.30;0.40;;;5.20;99.90;;;;;;4998631;28;20449;-92
2021/03/12 04:19:31;;;;;;;0.97;0.67;;;5.20;99.90;;;;;;4997850;28;20433;-91
2021/03/12 04:21:59;;;;;;;1.97;0.63;;;5.20;99.90;;;;;;4998467;28;20457;-90
2021/03/12 04:24:27;;;;;;;3.20;0.70;;;5.30;99.90;;;;;;5000475;28;20429;-90
2021/03/12 04:26:54;;;;;;;5.90;0.80;;;5.20;99.90;;;;;;5014877;28;20465;-91
2021/03/12 04:29:20;;;;;;;0.60;0.47;;;;;;;;;;4991413;28;20434;-92
2021/03/12 04:31:47;;;;;;;4.67;0.60;;;5.20;99.90;;;;;;4996653;28;20493;-92
2021/03/12 04:34:13;;;;;;;0.50;0.30;;;5.20;99.90;;;;;;4992326;28;20457;-91
2021/03/12 04:36:41;;;;;;;1.80;0.60;;;5.30;99.90;;;;;;4997728;28;20441;-91
2021/03/12 04:39:08;;;;;;;3.93;0.87;;;;;;;;;;4998176;28;20940;-91
2021/03/12 04:41:36;;;;;;;2.30;0.67;;;5.30;99.90;;;;;;4998068;28;20504;-94
2021/03/12 04:44:05;;;;;;;9.83;1.33;;;5.70;99.90;;;;;;4992561;28;20449;-91
2021/03/12 04:46:32;;;;;;;2.53;0.60;;;5.30;99.90;;;;;;4991741;28;20430;-91
2021/03/12 04:48:58;;;;;;;3.83;0.60;;;;;;;;;;4995665;28;20457;-91
2021/03/12 04:51:25;;;;;;;4.23;0.83;;;;;;;;;;4995816;28;20481;-92
2021/03/12 04:53:52;;;;;;;2.77;0.80;;;5.30;99.90;;;;;;4994588;28;20464;-91
2021/03/12 04:56:19;;;;;;;4.87;0.80;;;;;;;;;;4995661;28;20466;-91
2021/03/12 04:58:47;;;;;;;1.37;0.67;;;5.30;99.90;;;;;;4994341;28;21022;-92
2021/03/12 05:01:13;;;;;;;2.77;0.73;;;;;;;;;;4997478;28;20449;-92
2021/03/12 05:03:40;;;;;;;1.33;0.63;;;;;;;;;;4997169;28;20537;-91
2021/03/12 05:06:08;;;;;;;0.70;0.53;;;5.10;99.90;;;;;;4996649;28;20457;-92
2021/03/12 05:08:37;;;;;;;0.67;0.30;;;5.00;99.90;;;;;;4997116;28;20435;-91
2021/03/12 05:11:04;;;;;;;0.50;0.50;;;5.00;99.90;;;;;;4997048;28;20457;-92
2021/03/12 05:13:31;;;;;;;1.00;0.60;;;;;;;;;;4990084;28;20488;-92
2021/03/12 05:15:58;;;;;;;4.00;0.70;;;5.00;99.90;;;;;;4996919;28;20465;-92
2021/03/12 05:18:25;;;;;;;2.70;0.60;;;;;;;;;;4995450;28;20468;-91
2021/03/12 05:20:51;;;;;;;3.40;0.77;;;;;;;;;;4994533;28;20461;-91
2021/03/12 05:23:20;;;;;;;3.33;1.07;;;5.00;99.90;;;;;;4995529;28;20457;-90
2021/03/12 05:25:47;;;;;;;4.80;0.90;;;5.00;99.90;;;;;;4997154;28;20452;-91
2021/03/12 05:28:13;;;;;;;3.30;0.77;;;4.90;99.90;;;;;;4963368;28;20453;-92
2021/03/12 05:30:40;;;;;;;3.70;0.63;;;4.90;99.90;;;;;;4993816;28;20452;-90
2021/03/12 05:33:07;;;;;;;3.07;0.83;;;4.90;99.90;;;;;;4988869;28;20866;-92
2021/03/12 05:35:34;;;;;;;3.70;0.83;;;;;;;;;;4996153;28;20828;-91
2021/03/12 05:38:01;;;;;;;3.30;1.83;;;;;;;;;;4993522;28;20925;-91
2021/03/12 05:40:28;;;;;;;2.17;0.90;;;;;;;;;;4994722;28;20489;-91
2021/03/12 05:42:56;;;;;;;11.10;1.27;;;4.80;99.90;;;;;;4996704;28;20485;-90
2021/03/12 05:45:23;;;;;;;0.87;0.40;;;;;;;;;;4996687;28;20453;-91
2021/03/12 05:47:50;;;;;;;2.80;0.93;;;4.80;99.90;;;;;;4996366;28;20925;-91
2021/03/12 05:50:18;;;;;;;2.40;0.70;;;4.80;99.90;;;;;;4995686;28;20809;-91
2021/03/12 05:52:46;;;;;;;3.60;1.17;;;4.80;99.90;;;;;;4996425;28;20496;-93
2021/03/12 05:55:15;;;;;;;2.70;0.87;;;4.90;99.90;;;;;;5007606;28;20552;-91
2021/03/12 05:57:42;;;;;;;2.80;0.73;;;4.90;99.90;;;;;;4992727;28;20508;-92
2021/03/12 06:00:09;;;;;;;2.40;1.00;;;4.80;99.90;;;;;;4991327;28;20453;-91
2021/03/12 06:02:36;;;;;;;7.00;0.93;;;;;;;;;;4995976;28;20514;-92
2021/03/12 06:05:02;;;;;;;2.33;0.83;;;;;;;;;;4995549;28;20448;-90
2021/03/12 06:07:29;;;;;;;3.73;1.20;;;4.80;99.90;;;;;;4995746;28;20446;-91
2021/03/12 06:09:56;;;;;;;4.57;1.23;;;;;;;;;;4994309;28;20511;-91
2021/03/12 06:12:22;;;;;;;7.90;1.83;;;5.00;99.90;;;;;;4998687;28;20488;-92
2021/03/12 06:15:16;;;;;;;1.17;0.80;;;5.10;99.90;;;;;;5001345;28;20448;-91
2021/03/12 06:17:53;;;;;;;0.53;0.40;;;5.10;99.90;;;;;;4997605;28;20573;-92
2021/03/12 06:20:34;;;;;;;1.70;0.47;;;7.20;99.90;;;;;;4984729;28;20444;-91
2021/03/12 06:23:04;;;;;;;4.10;0.90;;;5.20;99.90;;;;;;4982061;28;20453;-91
2021/03/12 06:25:32;;;;;;;2.23;0.80;;;;;;;;;;4989975;28;20576;-91
2021/03/12 06:28:15;;;;;;;4.10;1.17;;;5.40;99.90;;;;;;4980595;28;20548;-93
2021/03/12 06:31:05;;;;;;;2.27;0.70;;;5.40;99.90;;;;;;4972544;28;20794;-90
2021/03/12 06:33:35;;;;;;;1.73;0.60;;;5.30;99.90;;;;;;4983868;28;20973;-91
2021/03/12 06:36:04;;;;;;;1.17;0.20;;;5.20;99.90;;;;;;4975695;28;21008;-93
2021/03/12 06:38:39;;;;;;;3.00;0.90;;;4.90;99.90;;;;;;4980076;28;20454;-90
2021/03/12 06:41:39;;;;;;;2.23;0.80;;;5.50;99.90;;;;;;4983534;28;20464;-93
2021/03/12 06:44:34;;;;;;;3.43;0.80;;;5.30;99.90;;;;;;4986139;28;20987;-91
2021/03/12 06:47:13;;;;;;;1.70;0.80;;;5.20;99.90;;;;;;4976522;28;20454;-93
2021/03/12 06:50:00;;;;;;;2.03;1.03;;;5.20;99.90;;;;;;4996915;28;20859;-91
2021/03/12 06:52:32;;;;;;;7.43;0.80;;;5.20;99.90;;;;;;4978740;28;20497;-92
2021/03/12 06:55:00;;;;;;;5.47;1.60;;;5.60;99.90;;;;;;4976155;28;20938;-91
2021/03/12 06:57:26;;;;;;;1.90;1.47;;;;;;;;;;4970220;28;20482;-91
2021/03/12 06:59:59;;;;;;;0.80;0.63;;;5.10;99.90;;;;;;4976222;28;20462;-92
2021/03/12 07:02:30;;;;;;;1.13;0.40;;;5.80;99.90;;;;;;4976319;28;20450;-92
2021/03/12 07:04:57;;;;;;;0.40;0.30;;;5.00;99.90;;;;;;4972239;28;20458;-90
2021/03/12 07:07:34;;;;;;;1.47;0.70;;;5.50;99.90;;;;;;4971042;28;20805;-93
2021/03/12 07:10:02;;;;;;;1.37;0.50;;;5.80;99.90;;;;;;4980181;28;20484;-94
2021/03/12 07:12:54;;;;;;;1.60;1.20;;;6.00;99.90;;;;;;4981970;28;20896;-92
2021/03/12 07:15:28;;;;;;;7.50;1.33;;;6.10;99.90;;;;;;4993263;28;21016;-91
2021/03/12 07:18:01;;;;;;;2.43;0.70;;;5.90;99.90;;;;;;4989033;28;20829;-92
2021/03/12 07:20:29;;;;;;;1.00;0.40;;;;;;;;;;4981886;28;21040;-92
2021/03/12 07:23:00;;;;;;;0.70;0.40;;;5.60;99.90;;;;;;4981989;28;20450;-92
2021/03/12 07:25:32;;;;;;;3.03;0.93;;;5.90;99.90;;;;;;4985243;28;20533;-93
2021/03/12 07:28:06;;;;;;;1.47;0.77;;;6.30;99.90;;;;;;4988275;28;20449;-93
2021/03/12 07:30:38;;;;;;;3.10;1.10;;;6.60;99.90;;;;;;4976429;28;20446;-89
2021/03/12 07:33:05;;;;;;;0.90;0.50;;;;;;;;;;4985815;28;20493;-93
2021/03/12 07:35:33;;;;;;;0.80;0.43;;;6.80;99.90;;;;;;4994573;28;20452;-89
2021/03/12 07:38:01;;;;;;;1.37;0.50;;;6.70;99.90;;;;;;4993870;28;20456;-90
2021/03/12 07:40:32;;;;;;;4.47;0.60;;;6.80;99.90;;;;;;5001674;28;20445;-88
2021/03/12 07:42:59;;;;;;;0.87;0.40;;;6.80;99.90;;;;;;5000501;28;20445;-91
2021/03/12 07:45:26;;;;;;;1.53;0.60;;;7.20;99.90;;;;;;4998688;28;20464;-88
2021/03/12 07:47:52;;;;;;;1.57;0.57;;;;;;;;;;4998244;28;20464;-88
2021/03/12 07:50:29;;;;;;;2.30;0.50;;;7.30;99.90;;;;;;5000143;28;20476;-91
2021/03/12 07:52:55;;;;;;;1.57;0.63;;;7.40;99.90;;;;;;5005008;28;20496;-91
2021/03/12 07:55:52;;;;;;;6.57;1.07;;;7.50;99.90;;;;;;5000391;28;20496;-92
2021/03/12 07:58:50;;;;;;;2.77;0.53;;;8.30;99.90;;;;;;5005496;28;20485;-91
2021/03/12 08:01:17;;;;;;;1.80;0.50;;;8.30;99.90;;;;;;5005713;28;20461;-92
2021/03/12 08:03:59;;;;;;;3.23;0.53;;;8.30;99.90;;;;;;5010021;28;20476;-96
2021/03/12 08:06:29;;;;;;;0.70;0.60;;;7.60;99.90;;;;;;5003971;28;20455;-91
2021/03/12 08:09:31;;;;;;;3.37;0.80;;;7.60;99.90;;;;;;4983764;28;20450;-91
2021/03/12 08:12:05;;;;;;;1.07;0.50;;;7.50;99.90;;;;;;4983752;28;20529;-94
2021/03/12 08:14:33;;;;;;;5.50;0.60;;;;;;;;;;4982561;28;20945;-93
2021/03/12 08:17:17;;;;;;;2.63;0.70;;;7.90;99.90;;;;;;4982207;28;20468;-94
2021/03/12 08:19:51;;;;;;;1.10;0.50;;;8.00;99.90;;;;;;4997321;28;20454;-92
2021/03/12 08:22:45;;;;;;;0.70;0.40;;;8.50;99.90;;;;;;4991057;28;20445;-92
2021/03/12 08:25:32;;;;;;;1.50;0.60;;;8.60;99.90;;;;;;4991305;28;20500;-93
2021/03/12 08:28:01;;;;;;;0.50;0.33;;;9.00;99.90;;;;;;5004371;28;20548;-95
2021/03/12 08:30:49;;;;;;;2.80;0.67;;;8.60;99.90;;;;;;4996946;28;20460;-92
2021/03/12 08:33:43;;;;;;;1.57;0.60;;;8.40;99.90;;;;;;5018800;28;20504;-91
2021/03/12 08:36:24;;;;;;;1.67;0.50;;;8.20;99.90;;;;;;4990831;28;20481;-92
2021/03/12 08:38:51;;;;;;;1.23;0.80;;;;;;;;;;4983127;28;20934;-93
2021/03/12 08:41:23;;;;;;;1.60;0.90;;;8.60;99.90;;;;;;4984809;28;20457;-92
2021/03/12 08:43:55;;;;;;;2.20;0.90;;;8.40;99.90;;;;;;4989104;28;20450;-92
2021/03/12 08:46:38;;;;;;;1.43;0.40;;;8.10;99.90;;;;;;5000287;28;20451;-91
2021/03/12 08:49:08;;;;;;;0.70;0.40;;;8.10;99.90;;;;;;5011008;28;20644;-90
2021/03/12 08:51:35;;;;;;;0.93;0.57;;;;;;;;;;5010626;28;20477;-93
2021/03/12 08:54:03;;;;;;;2.07;1.60;;;8.70;99.90;;;;;;5005093;28;20461;-94
2021/03/12 08:56:33;;;;;;;1.03;0.90;;;8.40;99.90;;;;;;5004195;28;21029;-93
2021/03/12 08:59:02;;;;;;;2.20;0.70;;;8.90;99.90;;;;;;5002310;28;20515;-91
2021/03/12 09:01:29;;;;;;;0.80;0.70;;;9.50;99.90;;;;;;5003331;28;20961;-91
2021/03/12 09:03:58;;;;;;;2.70;0.43;;;9.50;99.20;;;;;;4997729;28;20901;-91
2021/03/12 09:06:33;;;;;;;1.77;0.60;;;9.50;99.90;;;;;;5011046;23;20580;-93
2021/03/12 09:09:00;;;;;;;2.77;0.77;;;8.40;99.90;;;;;;4979786;28;20453;-89
2021/03/12 09:11:27;;;;;;;3.17;0.60;;;8.90;99.00;;;;;;4982236;28;20516;-92
2021/03/12 09:13:58;;;;;;;2.37;0.90;;;8.30;99.90;;;;;;4974648;28;20517;-92
2021/03/12 09:16:30;;;;;;;1.30;0.57;;;8.50;99.90;;;;;;4981252;28;20454;-91
2021/03/12 09:18:57;;;;;;;0.90;0.47;;;7.90;99.90;;;;;;4981839;28;20458;-93
2021/03/12 09:21:25;;;;;;;0.93;0.50;;;7.70;99.90;;;;;;4977370;28;20541;-90
2021/03/12 09:23:53;;;;;;;1.57;0.30;;;7.70;99.90;;;;;;4974797;28;20461;-91
2021/03/12 09:26:20;;;;;;;3.23;0.80;;;7.80;99.90;;;;;;4974197;28;21012;-88
2021/03/12 09:28:48;;;;;;;1.40;0.70;;;7.80;99.90;;;;;;4999119;28;20458;-91
2021/03/12 09:31:16;;;;;;;2.43;0.70;;;7.70;99.90;;;;;;5004179;28;20956;-90
2021/03/12 09:33:47;;;;;;;2.50;0.40;;;7.70;99.90;;;;;;5017342;28;20460;-91
2021/03/12 09:36:26;;;;;;;0.90;0.70;;;7.80;99.90;;;;;;5000705;28;20464;-88
2021/03/12 09:38:54;;;;;;;1.70;0.50;;;8.20;99.90;;;;;;4978572;28;20462;-91
2021/03/12 09:41:22;;;;;;;2.77;0.70;;;8.40;99.90;;;;;;4978498;28;20473;-92
2021/03/12 09:44:03;;;;;;;0.60;0.40;;;8.10;99.90;;;;;;4978007;28;20446;-90
2021/03/12 09:46:31;;;;;;;4.60;0.70;;;8.40;99.90;;;;;;4977777;28;20454;-91
2021/03/12 09:48:59;;;;;;;2.70;0.70;;;9.40;99.90;;;;;;4987115;28;20472;-88
2021/03/12 09:51:29;;;;;;;1.43;0.60;;;8.40;99.90;;;;;;4986812;28;20454;-92
2021/03/12 09:53:56;;;;;;;1.07;0.40;;;;;;;;;;4982727;28;20853;-92
2021/03/12 09:56:23;;;;;;;1.47;1.00;;;8.30;99.90;;;;;;4996930;28;20471;-90
2021/03/12 09:58:50;;;;;;;3.80;1.83;;;8.00;99.90;;;;;;4997140;28;20453;-90
2021/03/12 10:01:20;;;;;;;3.17;0.50;;;8.00;99.90;;;;;;4996408;28;20514;-90
2021/03/12 10:03:47;;;;;;;3.30;0.67;;;8.10;99.90;;;;;;4993345;28;20453;-90
2021/03/12 10:06:15;;;;;;;2.47;0.60;;;8.10;99.90;;;;;;4994664;28;20456;-91
2021/03/12 10:09:05;;;;;;;2.80;0.40;;;8.10;99.90;;;;;;4996135;28;20453;-89
2021/03/12 10:11:43;;;;;;;3.53;0.73;;;7.80;99.90;;;;;;4994968;28;20520;-89
2021/03/12 10:14:33;;;;;;;2.40;0.50;;;7.80;99.90;;;;;;4996185;28;20491;-90
2021/03/12 10:17:11;;;;;;;0.90;0.40;;;7.60;99.90;;;;;;4996397;28;20537;-90
2021/03/12 10:19:48;;;;;;;2.30;0.70;;;7.40;99.90;;;;;;4982616;28;20473;-91
2021/03/12 10:22:18;;;;;;;2.10;0.70;;;7.20;99.90;;;;;;4976521;28;20446;-93
2021/03/12 10:24:54;;;;;;;1.93;0.90;;;7.00;99.90;;;;;;4975160;28;20477;-90
2021/03/12 10:27:22;;;;;;;2.30;1.00;;;8.30;99.90;;;;;;4977366;28;20454;-89
2021/03/12 10:29:49;;;;;;;2.10;1.40;;;8.20;99.90;;;;;;4976368;28;20454;-91
2021/03/12 10:32:15;;;;;;;4.03;1.20;;;8.30;99.90;;;;;;4975807;28;21043;-90
2021/03/12 10:34:43;;;;;;;3.07;0.90;;;9.10;99.90;;;;;;4974609;28;20960;-90
2021/03/12 10:37:11;;;;;;;1.30;0.60;;;9.40;99.90;;;;;;4975393;28;20541;-90
2021/03/12 10:39:43;;;;;;;2.67;0.80;;;9.40;99.90;;;;;;4975449;28;20477;-92
2021/03/12 10:42:10;;;;;;;2.30;0.60;;;10.80;99.90;;;;;;4975802;28;20501;-90
2021/03/12 10:44:51;;;;;;;0.63;0.50;;;9.00;99.90;;;;;;4979655;28;20450;-90
2021/03/12 10:47:17;;;;;;;0.90;0.33;;;8.30;99.90;;;;;;4974340;28;20450;-88
2021/03/12 10:49:45;;;;;;;0.93;0.57;;;8.80;99.90;;;;;;4980155;28;20457;-88
2021/03/12 10:52:24;;;;;;;3.00;0.87;;;8.40;99.90;;;;;;5002306;28;20495;-91
2021/03/12 10:54:52;;;;;;;2.40;0.50;;;9.40;99.90;;;;;;4993625;28;20459;-91
2021/03/12 10:57:30;;;;;;;1.33;0.80;;;9.40;99.90;;;;;;4994779;28;20563;-90
2021/03/12 10:59:58;;;;;;;0.87;0.60;;;9.60;99.90;;;;;;4994826;28;20449;-90
2021/03/12 11:02:34;;;;;;;0.80;0.50;;;9.70;99.90;;;;;;4994137;28;21038;-91
2021/03/12 11:05:01;;;;;;;1.60;0.53;;;;;;;;;;4995143;28;20483;-91
2021/03/12 11:07:28;;;;;;;1.93;0.70;;;;;;;;;;4996783;28;20841;-91
2021/03/12 11:09:55;;;;;;;2.70;0.83;;;9.90;99.90;;;;;;4997117;28;20489;-90
2021/03/12 11:12:21;;;;;;;0.50;0.30;;;10.50;99.90;;;;;;4990178;28;20552;-89
2021/03/12 11:14:48;;;;;;;2.03;0.70;;;11.00;99.90;;;;;;4995550;28;20452;-90
2021/03/12 11:17:16;;;;;;;3.70;1.07;;;10.80;96.20;;;;;;4997928;28;20532;-92
2021/03/12 11:19:47;;;;;;;0.77;0.30;;;11.00;95.40;;;;;;5003376;28;20466;-91
2021/03/12 11:22:14;;;;;;;1.73;0.67;;;;;;;;;;4983614;28;20445;-93
2021/03/12 11:24:49;;;;;;;1.47;0.80;;;10.60;95.30;;;;;;4993188;28;20445;-92
2021/03/12 11:27:22;;;;;;;2.97;0.60;;;10.80;95.00;;;;;;4979746;28;20454;-94
2021/03/12 11:29:51;;;;;;;2.70;0.60;;;;;;;;;;4992005;28;20550;-91
2021/03/12 11:32:21;;;;;;;0.90;0.63;;;;;;;;;;4987840;28;20949;-90
2021/03/12 11:35:09;;;;;;;2.13;0.70;;;11.40;94.00;;;;;;4981887;28;20989;-91
2021/03/12 11:37:36;;;;;;;0.63;0.43;;;;;;;;;;4986860;28;20473;-91
2021/03/12 11:40:04;;;;;;;0.97;0.50;;;;;;;;;;4984595;28;20481;-94
2021/03/12 11:42:33;;;;;;;1.40;0.90;;;13.60;94.90;;;;;;4983868;28;20488;-92
2021/03/12 11:45:04;;;;;;;3.57;0.97;;;11.00;92.70;;;;;;4986598;28;20437;-92
2021/03/12 11:47:33;;;;;;;1.77;0.70;;;10.50;91.60;;;;;;4986921;28;20450;-92
2021/03/12 11:50:16;;;;;;;2.13;0.60;;;11.20;92.00;;;;;;4987268;28;20503;-91
2021/03/12 11:52:49;;;;;;;0.40;0.30;;;10.90;91.50;;;;;;4981318;28;20532;-92
2021/03/12 11:55:20;;;;;;;1.23;1.10;;;10.90;91.90;;;;;;4989087;28;20457;-90
2021/03/12 11:57:52;;;;;;;1.60;0.60;;;11.20;91.50;;;;;;4985269;28;20946;-93
2021/03/12 12:00:19;;;;;;;0.80;0.43;;;;;;;;;;4992932;28;20827;-94
2021/03/12 12:02:50;;;;;;;1.37;0.40;;;10.90;91.50;;;;;;4989851;28;20453;-90
2021/03/12 12:05:17;;;;;;;1.07;0.97;;;;;;;;;;4987599;28;20453;-90
2021/03/12 12:07:43;;;;;;;0.73;0.47;;;;;;;;;;4993032;28;20488;-94
2021/03/12 12:10:13;;;;;;;2.10;0.60;;;11.50;95.20;;;;;;4992312;28;20457;-91
2021/03/12 12:12:42;;;;;;;0.70;0.33;;;11.40;92.50;;;;;;4996576;28;20500;-90
2021/03/12 12:15:12;;;;;;;1.70;0.47;;;11.20;90.70;;;;;;4995627;28;20457;-89
2021/03/12 12:17:39;;;;;;;0.50;0.40;;;11.20;91.70;;;;;;4994554;28;20937;-88
2021/03/12 12:20:06;;;;;;;0.70;0.43;;;10.90;91.70;;;;;;4991551;28;20810;-87
2021/03/12 12:22:32;;;;;;;2.87;0.70;;;10.60;92.10;;;;;;4993872;28;20454;-88
2021/03/12 12:24:59;;;;;;;1.67;0.53;;;10.90;97.50;;;;;;4996791;28;20457;-90
2021/03/12 12:27:25;;;;;;;4.67;0.73;;;11.10;92.10;;;;;;4998278;28;20460;-90
2021/03/12 12:29:51;;;;;;;1.03;0.53;;;11.30;92.50;;;;;;4998095;28;20456;-87
2021/03/12 12:32:19;;;;;;;2.00;0.60;;;11.60;92.40;;;;;;4997057;28;21089;-89
2021/03/12 12:34:45;;;;;;;2.77;0.80;;;11.40;96.30;;;;;;4996295;28;20449;-89
2021/03/12 12:37:11;;;;;;;1.30;0.50;;;11.50;93.80;;;;;;4999987;28;20457;-93
2021/03/12 12:39:38;;;;;;;2.20;0.90;;;11.30;92.20;;;;;;4998288;28;20460;-92
2021/03/12 12:42:05;;;;;;;2.23;0.63;;;;;;;;;;4998689;28;20967;-92
2021/03/12 12:44:31;;;;;;;3.20;0.60;;;10.30;93.70;;;;;;5001033;28;20442;-93
2021/03/12 12:46:57;;;;;;;1.90;0.60;;;10.00;94.70;;;;;;5005782;28;20457;-89
2021/03/12 12:49:24;;;;;;;2.40;0.67;;;10.60;94.20;;;;;;5002724;28;20460;-93
2021/03/12 12:51:51;;;;;;;1.80;0.50;;;;;;;;;;5005471;28;20492;-90
2021/03/12 12:54:17;;;;;;;0.73;0.30;;;10.20;92.50;;;;;;5001003;28;20449;-89
2021/03/12 12:56:44;;;;;;;1.30;0.60;;;9.90;93.70;;;;;;5004027;28;20450;-92
2021/03/12 12:59:11;;;;;;;2.67;0.60;;;10.00;93.00;;;;;;5002629;28;20448;-92
2021/03/12 13:01:38;;;;;;;2.07;0.63;;;9.90;92.40;;;;;;4995539;28;20441;-94
2021/03/12 13:04:08;;;;;;;1.93;0.90;;;9.90;92.40;;;;;;4989182;28;20445;-93
2021/03/12 13:06:36;;;;;;;1.63;0.50;;;9.60;92.50;;;;;;5005460;28;20576;-92
2021/03/12 13:09:02;;;;;;;1.10;0.30;;;;;;;;;;4995875;28;20449;-92
2021/03/12 13:11:29;;;;;;;1.43;0.50;;;10.50;90.80;;;;;;5002316;28;20465;-92
2021/03/12 13:13:55;;;;;;;1.03;0.57;;;9.80;91.90;;;;;;5009107;28;20489;-94
2021/03/12 13:16:23;;;;;;;0.87;0.47;;;;;;;;;;5020536;22;20658;-89
2021/03/12 13:18:55;;;;;;;0.73;0.50;;;9.90;93.00;;;;;;5000631;28;20446;-88
2021/03/12 13:21:21;;;;;;;0.80;0.50;;;;;;;;;;4994716;28;20505;-88
2021/03/12 13:23:58;;;;;;;3.00;1.00;;;10.20;91.20;;;;;;5008831;28;20442;-89
2021/03/12 13:26:28;;;;;;;3.50;0.57;;;9.90;92.40;;;;;;5057450;22;20501;-88
2021/03/12 13:28:55;;;;;;;2.80;0.70;;;;;;;;;;5019283;28;20449;-89